Time;durP1;ratioP1;P1;durP2;ratioP2;P2;SDS_P1;SDS_P2;PMS_P1;PMS_P2;Temp;Humidity;BMP_temperature;BMP_pressure;BME280_temperature;BME280_humidity;BME280_pressure;Samples;Min_cycle;Max_cycle;Signal;HPM_P1;HPM_P2
2021/10/20 00:01:45;;;;;;;13.80;8.15;;;;;;;-139.48;100.00;61774.03;5056011;28;20075;-70
2021/10/20 00:04:29;;;;;;;10.75;8.00;;;;;;;-139.48;100.00;61774.03;5054935;28;20536;-68
2021/10/20 00:07:13;;;;;;;12.68;8.93;;;;;;;-139.48;100.00;61774.03;5055125;28;20508;-70
2021/10/20 00:09:57;;;;;;;10.85;7.65;;;;;;;-139.48;100.00;61774.03;5055094;28;20095;-70
2021/10/20 00:12:41;;;;;;;10.45;7.63;;;;;;;-139.48;100.00;61774.03;5055131;28;20106;-70
2021/10/20 00:15:26;;;;;;;10.77;7.90;;;;;;;-139.48;100.00;61774.03;5054806;28;20468;-70
2021/10/20 00:18:10;;;;;;;10.65;7.40;;;;;;;-139.48;100.00;61774.03;5054840;28;20052;-70
2021/10/20 00:20:54;;;;;;;15.10;7.95;;;;;;;-139.48;100.00;61774.03;5054586;28;20048;-70
2021/10/20 00:23:37;;;;;;;11.88;8.23;;;;;;;-139.48;100.00;61774.03;5054617;28;20052;-69
2021/10/20 00:26:22;;;;;;;11.10;8.00;;;;;;;-139.48;100.00;61774.03;5054623;28;20501;-69
2021/10/20 00:29:06;;;;;;;12.65;8.18;;;;;;;-139.48;100.00;61774.03;5054610;28;20508;-69
2021/10/20 00:31:50;;;;;;;12.20;7.78;;;;;;;-139.48;100.00;61774.03;5054360;28;20075;-70
2021/10/20 00:34:34;;;;;;;12.38;8.05;;;;;;;-139.48;100.00;61774.03;5040667;28;20145;-70
2021/10/20 00:37:17;;;;;;;12.95;8.25;;;;;;;-139.48;100.00;61774.03;5054170;28;20098;-70
2021/10/20 00:40:03;;;;;;;10.55;7.90;;;;;;;-139.48;100.00;61774.03;5054576;28;20040;-69
2021/10/20 00:42:47;;;;;;;15.88;7.43;;;;;;;-139.48;100.00;61774.03;5054454;28;20124;-70
2021/10/20 00:45:31;;;;;;;;;;;;;;;-139.48;100.00;61774.03;5054750;28;20104;-69
2021/10/20 00:48:16;;;;;;;11.07;7.53;;;;;;;-139.48;100.00;61774.03;5054287;28;19920;-70
2021/10/20 00:51:00;;;;;;;11.13;7.88;;;;;;;-139.48;100.00;61774.03;5040093;28;20047;-70
2021/10/20 00:53:43;;;;;;;10.00;7.32;;;;;;;-139.48;100.00;61774.03;5054166;28;20516;-70
2021/10/20 00:56:29;;;;;;;10.00;7.38;;;;;;;-139.48;100.00;61774.03;5054771;28;20620;-71
2021/10/20 00:59:12;;;;;;;9.15;7.20;;;;;;;-139.48;100.00;61774.03;5053811;28;20070;-69
2021/10/20 01:01:56;;;;;;;10.25;7.53;;;;;;;-139.48;100.00;61774.03;5040216;28;20083;-70
2021/10/20 01:04:40;;;;;;;11.63;7.82;;;;;;;-139.48;100.00;61774.03;5055001;28;20051;-69
2021/10/20 01:07:24;;;;;;;11.98;7.75;;;;;;;-139.48;100.00;61774.03;5039779;28;20051;-70
2021/10/20 01:10:09;;;;;;;10.02;7.03;;;;;;;-139.48;100.00;61774.03;5053562;28;20409;-69
2021/10/20 01:12:54;;;;;;;11.80;7.53;;;;;;;-139.48;100.00;61774.03;5053878;28;20091;-70
2021/10/20 01:15:38;;;;;;;12.75;7.50;;;;;;;-139.48;100.00;61774.03;5039448;28;20535;-70
2021/10/20 01:18:22;;;;;;;11.07;7.25;;;;;;;-139.48;100.00;61774.03;5053902;28;20051;-70
2021/10/20 01:21:06;;;;;;;12.02;7.70;;;;;;;-139.48;100.00;61774.03;5053788;28;20098;-70
2021/10/20 01:23:49;;;;;;;12.60;8.27;;;;;;;-139.48;100.00;61774.03;5054016;28;20109;-70
2021/10/20 01:26:34;;;;;;;10.48;7.50;;;;;;;-139.48;100.00;61774.03;5054581;28;20071;-70
2021/10/20 01:29:19;;;;;;;13.38;8.00;;;;;;;-139.48;100.00;61774.03;5053291;28;20110;-70
2021/10/20 01:32:05;;;;;;;13.50;8.32;;;;;;;-139.48;100.00;61774.03;5039280;28;20122;-68
2021/10/20 01:34:49;;;;;;;11.55;7.35;;;;;;;-139.48;100.00;61774.03;5039526;28;20178;-70
2021/10/20 01:37:33;;;;;;;9.73;6.80;;;;;;;-139.48;100.00;61774.03;5054114;28;20179;-70
2021/10/20 01:40:17;;;;;;;13.10;7.32;;;;;;;-139.48;100.00;61774.03;5039163;28;20080;-70
2021/10/20 01:43:01;;;;;;;11.48;6.88;;;;;;;-139.48;100.00;61774.03;5053114;28;20476;-70
2021/10/20 01:45:45;;;;;;;12.45;7.60;;;;;;;-139.48;100.00;61774.03;5039415;28;20468;-70
2021/10/20 01:48:29;;;;;;;10.02;7.82;;;;;;;-139.48;100.00;61774.03;5054019;28;20418;-71
2021/10/20 01:51:13;;;;;;;11.50;7.50;;;;;;;-139.48;100.00;61774.03;5052882;28;20130;-70
2021/10/20 01:53:58;;;;;;;9.80;6.85;;;;;;;-139.48;100.00;61774.03;5052934;28;20445;-70
2021/10/20 01:56:42;;;;;;;9.93;7.13;;;;;;;-139.48;100.00;61774.03;5052944;28;20075;-70
2021/10/20 01:59:26;;;;;;;10.65;6.70;;;;;;;-139.48;100.00;61774.03;5052780;28;20039;-71
2021/10/20 02:02:18;;;;;;;10.10;6.65;;;;;;;-139.48;100.00;61774.03;5053027;28;20052;-69
2021/10/20 02:05:03;;;;;;;11.60;6.07;;;;;;;-139.48;100.00;61774.03;5038945;28;20052;-70
2021/10/20 02:07:47;;;;;;;8.73;6.13;;;;;;;-139.48;100.00;61774.03;5039054;28;20071;-70
2021/10/20 02:10:31;;;;;;;9.25;6.53;;;;;;;-139.48;100.00;61774.03;5038572;28;20532;-70
2021/10/20 02:13:15;;;;;;;10.40;5.93;;;;;;;-139.48;100.00;61774.03;5039016;28;20048;-69
2021/10/20 02:15:59;;;;;;;8.98;5.43;;;;;;;-139.48;100.00;61774.03;5053015;28;20055;-70
2021/10/20 02:18:43;;;;;;;8.60;5.97;;;;;;;-139.48;100.00;61774.03;5038695;28;20044;-70
2021/10/20 02:21:27;;;;;;;6.85;5.22;;;;;;;-139.48;100.00;61774.03;5052594;28;20095;-70
2021/10/20 02:24:11;;;;;;;6.47;5.05;;;;;;;-139.48;100.00;61774.03;5052689;28;20064;-69
2021/10/20 02:26:55;;;;;;;8.60;5.88;;;;;;;-139.48;100.00;61774.03;5052373;28;20098;-70
2021/10/20 02:29:39;;;;;;;7.43;5.07;;;;;;;-139.48;100.00;61774.03;5052535;28;20043;-70
2021/10/20 02:32:22;;;;;;;7.28;5.07;;;;;;;-139.48;100.00;61774.03;5053545;28;20051;-70
2021/10/20 02:35:08;;;;;;;10.65;5.15;;;;;;;-139.48;100.00;61774.03;5052274;28;20078;-70
2021/10/20 02:37:52;;;;;;;8.43;5.32;;;;;;;-139.48;100.00;61774.03;5052139;28;20098;-69
2021/10/20 02:40:36;;;;;;;8.32;5.25;;;;;;;-139.48;100.00;61774.03;5052724;28;20048;-70
2021/10/20 02:43:20;;;;;;;7.22;5.35;;;;;;;-139.48;100.00;61774.03;5053277;28;20055;-70
2021/10/20 02:46:04;;;;;;;6.65;5.57;;;;;;;-139.48;100.00;61774.03;5038202;28;20056;-70
2021/10/20 02:48:48;;;;;;;9.13;5.28;;;;;;;-139.48;100.00;61774.03;5052204;28;20516;-70
2021/10/20 02:51:32;;;;;;;8.32;5.65;;;;;;;-139.48;100.00;61774.03;5038179;28;20102;-70
2021/10/20 02:54:17;;;;;;;10.35;4.95;;;;;;;-139.48;100.00;61774.03;5052305;28;20106;-70
2021/10/20 02:57:02;;;;;;;8.68;5.50;;;;;;;-139.48;100.00;61774.03;5038015;28;20131;-70
2021/10/20 02:59:47;;;;;;;5.75;4.93;;;;;;;-139.48;100.00;61774.03;5051944;28;20048;-71
2021/10/20 03:02:31;;;;;;;8.23;5.13;;;;;;;-139.48;100.00;61774.03;5038044;28;20048;-70
2021/10/20 03:05:15;;;;;;;10.80;5.78;;;;;;;-139.48;100.00;61774.03;5053158;28;20110;-70
2021/10/20 03:07:59;;;;;;;13.27;5.97;;;;;;;-139.48;100.00;61774.03;5052053;28;20559;-70
2021/10/20 03:10:43;;;;;;;8.77;5.03;;;;;;;-139.48;100.00;61774.03;5052262;28;20461;-70
2021/10/20 03:13:26;;;;;;;13.30;5.63;;;;;;;-139.48;100.00;61774.03;5052383;28;20120;-70
2021/10/20 03:16:10;;;;;;;9.60;5.90;;;;;;;-139.48;100.00;61774.03;5051746;28;20520;-70
2021/10/20 03:18:54;;;;;;;;;;;;;;;-139.48;100.00;61774.03;5038637;28;20044;-71
2021/10/20 03:21:38;;;;;;;10.65;5.93;;;;;;;-139.48;100.00;76778.78;5037988;28;19935;-70
2021/10/20 03:24:22;;;;;;;9.20;6.10;;;;;;;-139.48;100.00;61774.03;5052001;28;20052;-70
2021/10/20 03:27:06;;;;;;;8.10;5.82;;;;;;;-139.48;100.00;61774.03;5038080;28;20084;-70
2021/10/20 03:29:50;;;;;;;11.82;5.65;;;;;;;-139.48;100.00;61774.03;5051863;28;20044;-70
2021/10/20 03:32:34;;;;;;;8.43;6.30;;;;;;;-139.48;100.00;61774.03;5055054;28;20141;-70
2021/10/20 03:35:18;;;;;;;8.65;5.82;;;;;;;-139.48;100.00;61774.03;5055779;28;20047;-70
2021/10/20 03:38:03;;;;;;;8.13;6.45;;;;;;;-139.48;100.00;61774.03;5055478;28;20417;-70
2021/10/20 03:40:47;;;;;;;9.13;5.97;;;;;;;-139.48;100.00;61774.03;5043291;28;20051;-69
2021/10/20 03:43:31;;;;;;;9.10;5.90;;;;;;;-139.48;100.00;61774.03;5055622;28;20106;-70
2021/10/20 03:46:15;;;;;;;;;;;;;;;-139.48;100.00;61774.03;5055958;28;20103;-70
2021/10/20 03:48:59;;;;;;;9.07;5.60;;;;;;;-139.48;100.00;61774.03;5055134;28;19972;-70
2021/10/20 03:51:43;;;;;;;;;;;;;;;-139.48;100.00;61774.03;5055989;28;20044;-70
2021/10/20 03:54:27;;;;;;;8.43;5.85;;;;;;;-139.48;100.00;61774.03;5055731;28;19924;-70
2021/10/20 03:57:11;;;;;;;8.85;6.03;;;;;;;-139.48;100.00;61774.03;5055195;28;20455;-70
2021/10/20 03:59:55;;;;;;;13.18;6.15;;;;;;;-139.48;100.00;61774.03;5041368;28;20098;-70
2021/10/20 04:02:44;;;;;;;8.57;5.93;;;;;;;-139.48;100.00;61774.03;5056310;28;20047;-70
2021/10/20 04:05:28;;;;;;;9.43;5.88;;;;;;;-139.48;100.00;61774.03;5054946;28;20094;-70
2021/10/20 04:08:12;;;;;;;7.63;6.00;;;;;;;-139.48;100.00;61774.03;5055220;28;20047;-69
2021/10/20 04:10:56;;;;;;;7.97;5.20;;;;;;;-139.48;100.00;61774.03;5055136;28;20079;-71
2021/10/20 04:13:40;;;;;;;8.55;5.30;;;;;;;-139.48;100.00;61774.03;5055996;28;20099;-70
2021/10/20 04:16:24;;;;;;;7.28;5.68;;;;;;;-139.48;100.00;61774.03;5054916;28;20150;-70
2021/10/20 04:19:08;;;;;;;7.25;5.72;;;;;;;-139.48;100.00;61774.03;5054981;28;20093;-70
2021/10/20 04:21:51;;;;;;;10.52;5.22;;;;;;;-139.48;100.00;61774.03;5055008;28;20083;-70
2021/10/20 04:24:35;;;;;;;6.63;5.28;;;;;;;-139.48;100.00;61774.03;5054615;28;20083;-70
2021/10/20 04:27:19;;;;;;;7.25;5.03;;;;;;;-139.48;100.00;61774.03;5054590;28;20055;-70
2021/10/20 04:30:08;;;;;;;9.43;4.50;;;;;;;-139.48;100.00;61774.03;5040613;28;20043;-70
2021/10/20 04:32:52;;;;;;;6.78;5.13;;;;;;;-139.48;100.00;61774.03;5055394;28;20115;-70
2021/10/20 04:35:36;;;;;;;8.55;4.95;;;;;;;-139.48;100.00;61774.03;5055674;28;20047;-70
2021/10/20 04:38:20;;;;;;;8.05;5.30;;;;;;;-139.48;100.00;61774.03;5040477;28;20043;-70
2021/10/20 04:41:04;;;;;;;9.40;5.15;;;;;;;-139.48;100.00;61774.03;5040479;28;20039;-70
2021/10/20 04:43:48;;;;;;;8.40;4.72;;;;;;;-139.48;100.00;61774.03;5054170;28;20105;-69
2021/10/20 04:46:32;;;;;;;9.95;5.10;;;;;;;-139.48;100.00;61774.03;5054139;28;20102;-70
2021/10/20 04:49:16;;;;;;;7.32;4.80;;;;;;;-139.48;100.00;61774.03;5053873;28;20421;-70
2021/10/20 04:52:00;;;;;;;8.63;4.85;;;;;;;-139.48;100.00;61774.03;5054353;28;20110;-70
2021/10/20 04:54:43;;;;;;;7.03;4.50;;;;;;;-139.48;100.00;61774.03;5054055;28;20151;-70
2021/10/20 04:57:27;;;;;;;5.55;4.18;;;;;;;-139.48;100.00;61774.03;5053920;28;20417;-70
2021/10/20 05:00:12;;;;;;;6.28;4.57;;;;;;;-139.48;100.00;61774.03;5040319;28;20458;-70
2021/10/20 05:02:56;;;;;;;7.75;4.30;;;;;;;-139.48;100.00;61774.03;5040073;28;20056;-70
2021/10/20 05:05:40;;;;;;;7.65;4.35;;;;;;;-139.48;100.00;61774.03;5054088;28;20052;-69
2021/10/20 05:08:23;;;;;;;8.10;4.75;;;;;;;-139.48;100.00;61774.03;5039891;28;20099;-70
2021/10/20 05:11:07;;;;;;;6.13;4.20;;;;;;;-139.48;100.00;61774.03;5053934;28;20091;-70
2021/10/20 05:13:51;;;;;;;6.63;4.82;;;;;;;-139.48;100.00;61774.03;5054217;28;20056;-70
2021/10/20 05:16:35;;;;;;;6.72;4.70;;;;;;;-139.48;100.00;61774.03;5054631;28;20044;-70
2021/10/20 05:19:19;;;;;;;11.60;5.22;;;;;;;-139.48;100.00;61774.03;5053894;28;20056;-69
2021/10/20 05:22:06;;;;;;;7.20;5.43;;;;;;;-139.48;100.00;61774.03;5039411;28;20076;-70
2021/10/20 05:24:50;;;;;;;9.75;6.13;;;;;;;-139.48;100.00;61774.03;5053753;28;20137;-71
2021/10/20 05:27:34;;;;;;;7.75;5.82;;;;;;;-139.48;100.00;61774.03;5039140;28;20417;-70
2021/10/20 05:30:18;;;;;;;11.80;5.18;;;;;;;-139.48;100.00;61774.03;5039536;28;20097;-70
2021/10/20 05:33:02;;;;;;;10.68;6.28;;;;;;;-139.48;100.00;61774.03;5054460;28;20102;-70
2021/10/20 05:35:46;;;;;;;7.85;5.70;;;;;;;-139.48;100.00;61774.03;5054429;28;20079;-70
2021/10/20 05:38:30;;;;;;;8.52;5.47;;;;;;;-139.48;100.00;61774.03;5054498;28;20094;-70
2021/10/20 05:41:14;;;;;;;8.60;5.43;;;;;;;-139.48;100.00;61774.03;5038977;28;20052;-70
2021/10/20 05:43:58;;;;;;;8.30;5.40;;;;;;;-139.48;100.00;61774.03;5053417;28;20422;-70
2021/10/20 05:46:42;;;;;;;9.85;5.95;;;;;;;-139.48;100.00;61774.03;5053001;28;20113;-71
2021/10/20 05:49:26;;;;;;;7.68;5.68;;;;;;;-139.48;100.00;61774.03;5038800;28;20109;-68
2021/10/20 05:52:10;;;;;;;9.48;5.50;;;;;;;-139.48;100.00;61774.03;5038904;28;20060;-70
2021/10/20 05:54:54;;;;;;;8.68;5.85;;;;;;;-139.48;100.00;61774.03;5053493;28;20048;-71
2021/10/20 05:57:38;;;;;;;8.20;5.97;;;;;;;-139.48;100.00;61774.03;5053302;28;20467;-71
2021/10/20 06:00:22;;;;;;;8.77;6.13;;;;;;;-139.48;100.00;61774.03;5038807;28;20048;-71
2021/10/20 06:03:06;;;;;;;8.20;5.78;;;;;;;-139.48;100.00;61774.03;5052777;28;20051;-71
2021/10/20 06:05:50;;;;;;;9.75;6.45;;;;;;;-139.48;100.00;61774.03;5052901;28;20055;-71
2021/10/20 06:08:34;;;;;;;11.32;6.60;;;;;;;-139.48;100.00;61774.03;5053050;28;20481;-70
2021/10/20 06:11:19;;;;;;;10.15;6.13;;;;;;;-139.48;100.00;61774.03;5052865;28;20088;-71
2021/10/20 06:14:03;;;;;;;10.38;5.93;;;;;;;-139.48;100.00;61774.03;5052831;28;20059;-71
2021/10/20 06:16:47;;;;;;;8.13;5.68;;;;;;;-139.48;100.00;61774.03;5038578;28;20520;-71
2021/10/20 06:19:31;;;;;;;12.40;6.07;;;;;;;-139.48;100.00;61774.03;5038985;28;20130;-71
2021/10/20 06:22:16;;;;;;;9.63;6.72;;;;;;;-139.48;100.00;61774.03;5038609;28;20521;-71
2021/10/20 06:25:00;;;;;;;8.95;6.03;;;;;;;-139.48;100.00;61774.03;5052522;28;20055;-71
2021/10/20 06:27:44;;;;;;;9.80;6.40;;;;;;;-139.48;100.00;61774.03;5052395;28;20098;-71
2021/10/20 06:30:27;;;;;;;10.43;6.00;;;;;;;-139.48;100.00;61774.03;5052630;28;20111;-71
2021/10/20 06:33:11;;;;;;;18.08;6.30;;;;;;;-139.48;100.00;61774.03;5052280;28;20111;-71
2021/10/20 06:35:55;;;;;;;10.02;6.50;;;;;;;18.22;76.02;101009.94;5053227;28;20059;-71
2021/10/20 06:38:39;;;;;;;7.03;5.80;;;;;;;11.38;100.00;100351.47;5052481;28;20182;-70
2021/10/20 06:41:23;;;;;;;9.77;5.40;;;;;;;11.69;100.00;100344.88;5053115;28;20044;-71
2021/10/20 06:44:07;;;;;;;7.88;5.43;;;;;;;12.09;100.00;100341.81;5052424;28;20039;-70
2021/10/20 06:46:52;;;;;;;7.78;5.30;;;;;;;12.31;100.00;100326.13;5038050;28;20584;-71
2021/10/20 06:49:36;;;;;;;9.77;5.40;;;;;;;12.57;100.00;100320.84;5052020;28;20123;-71
2021/10/20 06:52:20;;;;;;;9.77;5.28;;;;;;;12.78;98.37;100307.97;5052307;28;20056;-70
2021/10/20 06:55:05;;;;;;;7.22;5.22;;;;;;;12.88;98.55;100310.38;5053259;28;20055;-71
2021/10/20 06:57:48;;;;;;;9.10;5.57;;;;;;;12.88;98.79;100314.88;5052246;28;20083;-71
2021/10/20 07:00:32;;;;;;;13.65;6.43;;;;;;;12.85;99.13;100305.31;5051984;28;20079;-71
2021/10/20 07:03:17;;;;;;;9.43;6.57;;;;;;;12.86;98.93;100295.47;5052492;28;20047;-71
2021/10/20 07:06:01;;;;;;;12.68;6.45;;;;;;;12.88;99.73;100288.97;5054130;28;20044;-70
2021/10/20 07:08:45;;;;;;;8.23;6.00;;;;;;;12.89;99.78;100289.81;5056038;28;20079;-71
2021/10/20 07:11:29;;;;;;;8.07;6.00;;;;;;;12.96;98.56;100289.03;5042076;28;20102;-71
2021/10/20 07:14:12;;;;;;;8.18;5.80;;;;;;;13.07;97.98;100287.94;5056173;28;20052;-71
2021/10/20 07:16:58;;;;;;;10.93;5.95;;;;;;;13.19;97.47;100289.34;5056830;28;20052;-71
2021/10/20 07:19:42;;;;;;;11.18;5.22;;;;;;;13.34;95.15;100291.25;5056215;28;20098;-71
2021/10/20 07:22:27;;;;;;;8.95;5.00;;;;;;;13.54;93.54;100294.47;5041606;28;20056;-71
2021/10/20 07:25:13;;;;;;;7.80;4.57;;;;;;;13.83;91.04;100292.22;5056017;28;20136;-71
2021/10/20 07:27:57;;;;;;;6.97;4.30;;;;;;;14.05;88.81;100289.75;5055658;28;20048;-71
2021/10/20 07:30:41;;;;;;;;;;;;;;;14.44;83.83;100288.13;5056183;28;20047;-71
2021/10/20 07:33:25;;;;;;;4.93;4.00;;;;;;;14.80;80.27;100283.25;5056623;28;20396;-71
2021/10/20 07:36:09;;;;;;;6.15;4.18;;;;;;;15.02;79.93;100285.19;5041679;28;20044;-71
2021/10/20 07:38:53;;;;;;;5.38;3.95;;;;;;;15.26;77.67;100294.03;5041649;28;20060;-72
2021/10/20 07:41:38;;;;;;;6.78;3.63;;;;;;;15.46;76.29;100286.41;5041576;28;20044;-71
2021/10/20 07:44:22;;;;;;;4.30;3.38;;;;;;;15.58;75.22;100283.97;5041417;28;20048;-71
2021/10/20 07:47:06;;;;;;;;;;;;;;;15.76;73.74;100297.19;5056079;28;20060;-71
2021/10/20 07:49:50;;;;;;;5.60;3.60;;;;;;;15.90;72.13;100302.66;5055066;28;19928;-71
2021/10/20 07:52:34;;;;;;;6.60;3.70;;;;;;;15.97;72.41;100275.88;5055366;28;20059;-71
2021/10/20 07:55:23;;;;;;;5.25;3.08;;;;;;;16.02;71.02;100285.09;5041226;28;20056;-69
2021/10/20 07:58:07;;;;;;;3.58;3.05;;;;;;;16.10;70.46;100289.56;5056573;28;20516;-71
2021/10/20 08:00:51;;;;;;;6.53;3.78;;;;;;;16.12;71.84;100287.53;5040901;28;20146;-71
2021/10/20 08:03:35;;;;;;;4.82;3.72;;;;;;;16.22;71.09;100286.28;5055396;28;20052;-71
2021/10/20 08:06:20;;;;;;;4.90;3.88;;;;;;;16.27;70.36;100275.00;5041021;28;20487;-71
2021/10/20 08:09:04;;;;;;;3.67;3.03;;;;;;;16.37;70.25;100276.44;5056101;28;20055;-71
2021/10/20 08:11:48;;;;;;;5.13;3.60;;;;;;;16.47;70.63;100263.56;5055139;28;20178;-71
2021/10/20 08:14:33;;;;;;;4.63;3.80;;;;;;;16.55;70.00;100255.44;5056034;28;20063;-71
2021/10/20 08:17:17;;;;;;;7.18;3.55;;;;;;;16.50;70.29;100249.75;5040196;28;20124;-71
2021/10/20 08:20:01;;;;;;;9.15;4.10;;;;;;;16.61;70.81;100237.72;5055017;28;20098;-71
2021/10/20 08:22:46;;;;;;;6.05;3.70;;;;;;;16.84;70.72;100243.84;5054675;28;20486;-72
2021/10/20 08:25:30;;;;;;;4.38;3.63;;;;;;;16.90;68.96;100238.56;5055124;28;20051;-71
2021/10/20 08:28:14;;;;;;;6.63;3.38;;;;;;;17.01;69.68;100234.59;5055546;28;20051;-71
2021/10/20 08:30:58;;;;;;;6.18;3.58;;;;;;;17.23;69.75;100233.63;5040404;28;20086;-71
2021/10/20 08:33:42;;;;;;;5.25;3.88;;;;;;;17.35;69.29;100237.53;5055470;28;20118;-71
2021/10/20 08:36:26;;;;;;;6.88;3.85;;;;;;;17.46;68.17;100254.09;5040257;28;20110;-71
2021/10/20 08:39:10;;;;;;;8.02;3.55;;;;;;;17.67;68.35;100227.19;5054367;28;20094;-70
2021/10/20 08:41:54;;;;;;;4.80;3.42;;;;;;;17.70;67.29;100226.78;5054589;28;20456;-71
2021/10/20 08:44:38;;;;;;;5.32;3.47;;;;;;;17.77;66.83;100226.84;5054526;28;20500;-72
2021/10/20 08:47:23;;;;;;;4.72;3.28;;;;;;;17.96;67.54;100205.50;5054229;28;20048;-71
2021/10/20 08:50:08;;;;;;;5.95;3.63;;;;;;;18.19;67.16;100197.19;5053934;28;20417;-71
2021/10/20 08:52:53;;;;;;;8.45;3.33;;;;;;;18.11;66.77;100191.94;5040311;28;20071;-71
2021/10/20 08:55:37;;;;;;;8.98;3.97;;;;;;;18.14;67.39;100180.75;5054562;28;20099;-71
2021/10/20 08:58:22;;;;;;;6.05;3.30;;;;;;;18.26;66.80;100196.22;5040173;28;20051;-71
2021/10/20 09:01:06;;;;;;;10.45;3.88;;;;;;;18.47;65.66;100178.16;5039752;28;20183;-71
2021/10/20 09:03:50;;;;;;;4.70;3.60;;;;;;;19.09;63.81;100175.41;5054143;28;20052;-71
2021/10/20 09:06:35;;;;;;;5.72;3.67;;;;;;;19.58;62.94;100167.94;5039777;28;20094;-71
2021/10/20 09:09:19;;;;;;;7.22;3.47;;;;;;;19.77;60.75;100156.31;5053662;28;20055;-71
2021/10/20 09:12:03;;;;;;;6.55;4.10;;;;;;;19.93;59.48;100166.75;5053942;28;20079;-72
2021/10/20 09:14:47;;;;;;;6.53;3.70;;;;;;;19.90;60.99;100183.41;5053976;28;20102;-71
2021/10/20 09:17:51;;;;;;;5.30;3.40;;;;;;;20.54;58.32;100173.66;5053580;28;20051;-70
2021/10/20 09:20:45;;;;;;;6.70;3.67;;;;;;;20.68;58.19;100159.03;5053628;28;20520;-71
2021/10/20 09:23:29;;;;;;;;;;;;;;;19.96;60.53;100152.78;5040090;28;20253;-69
2021/10/20 09:26:13;;;;;;;4.47;3.10;;;;;;;19.39;63.72;100160.59;5039549;28;19920;-71
2021/10/20 09:28:57;;;;;;;;;;;;;;;19.49;63.53;100152.94;5054430;28;20039;-69
2021/10/20 09:31:43;;;;;;;4.00;3.20;;;;;;;19.50;62.92;100154.59;5039362;28;19962;-71
2021/10/20 09:34:37;;;;;;;4.53;3.05;;;;;;;19.63;63.00;100149.22;5039216;28;20102;-71
2021/10/20 09:37:21;;;;;;;3.72;3.28;;;;;;;19.94;61.74;100141.34;5039318;28;20051;-71
2021/10/20 09:40:08;;;;;;;6.55;3.70;;;;;;;20.15;61.31;100149.31;5053262;28;20075;-71
2021/10/20 09:42:54;;;;;;;5.38;3.17;;;;;;;20.84;58.79;100135.03;5031522;23;20428;-68
2021/10/20 09:45:40;;;;;;;6.28;3.47;;;;;;;21.62;56.58;100135.56;4994190;28;20048;-68
2021/10/20 09:48:25;;;;;;;4.22;3.40;;;;;;;21.75;55.25;100140.06;4994585;28;20506;-68
2021/10/20 09:51:11;;;;;;;6.18;2.80;;;;;;;22.93;51.39;100138.00;4993680;28;20439;-67
2021/10/20 09:53:55;;;;;;;6.93;3.13;;;;;;;-139.48;100.00;61774.03;4993568;28;20107;-68
2021/10/20 09:56:39;;;;;;;;;;;;;;;-139.48;100.00;61774.03;4995180;28;20064;-68
2021/10/20 09:59:24;;;;;;;4.95;2.70;;;;;;;22.93;51.39;100138.00;4980125;28;20295;-67
2021/10/20 10:02:10;;;;;;;5.97;2.65;;;;;;;23.02;50.01;100132.00;4993700;28;20411;-68
2021/10/20 10:04:54;;;;;;;6.07;3.00;;;;;;;22.98;50.60;100138.13;4993601;28;20626;-67
2021/10/20 10:07:37;;;;;;;8.05;3.38;;;;;;;23.27;49.85;100143.66;4993432;28;20049;-67
2021/10/20 10:10:21;;;;;;;;;;;;;;;24.47;47.05;100115.00;4994144;28;20045;-68
2021/10/20 10:13:21;;;;;;;6.73;3.10;;;;;;;24.77;45.68;100120.31;4979663;28;20432;-68
2021/10/20 10:16:05;;;;;;;5.32;3.00;;;;;;;25.27;44.39;100127.72;4993403;28;20053;-68
2021/10/20 10:18:49;;;;;;;;;;;;;;;25.53;43.59;100129.06;4993921;28;20053;-68
2021/10/20 10:21:40;;;;;;;7.45;3.00;;;;;;;26.26;42.43;100113.44;4993109;28;20429;-68
2021/10/20 10:24:32;;;;;;;8.63;3.15;;;;;;;26.77;41.54;100107.69;4993101;28;20053;-67
2021/10/20 10:27:17;;;;;;;3.25;2.70;;;;;;;27.03;40.14;100130.50;4993408;28;20161;-67
2021/10/20 10:30:05;;;;;;;6.18;3.00;;;;;;;26.50;41.52;100113.06;4979508;28;20057;-68
2021/10/20 10:32:57;;;;;;;4.38;3.10;;;;;;;28.36;38.14;100098.50;4993899;28;20163;-67
2021/10/20 10:35:41;;;;;;;5.28;3.17;;;;;;;28.59;37.68;100087.16;4993243;28;20056;-68
2021/10/20 10:38:37;;;;;;;3.97;2.90;;;;;;;28.72;37.12;100083.94;4993831;28;20423;-68
2021/10/20 10:41:25;;;;;;;3.80;3.28;;;;;;;27.35;39.94;100087.69;4992779;28;20141;-68
2021/10/20 10:44:11;;;;;;;3.75;3.13;;;;;;;28.35;38.83;100061.22;4993194;28;20053;-68
2021/10/20 10:47:03;;;;;;;3.28;2.97;;;;;;;27.67;38.79;100069.38;4993097;28;20045;-68
2021/10/20 10:49:54;;;;;;;6.22;2.90;;;;;;;27.32;39.33;100073.69;4993088;28;20041;-67
2021/10/20 10:52:43;;;;;;;2.88;2.20;;;;;;;26.17;41.98;100047.47;4992950;28;20137;-67
2021/10/20 10:55:27;;;;;;;7.07;2.85;;;;;;;25.34;42.36;100113.94;4994212;28;20109;-67
2021/10/20 10:58:18;;;;;;;5.80;3.35;;;;;;;25.34;42.36;100113.94;4993687;28;20045;-67
2021/10/20 11:01:02;;;;;;;9.93;3.15;;;;;;;24.62;45.02;100046.41;4979311;28;20157;-67
2021/10/20 11:04:18;;;;;;;3.40;2.53;;;;;;;24.94;43.78;100064.00;4992653;28;20065;-68
2021/10/20 11:07:03;;;;;;;5.43;2.70;;;;;;;25.20;43.35;100064.28;4993179;28;20064;-67
2021/10/20 11:09:47;;;;;;;3.20;2.22;;;;;;;24.22;45.00;100057.19;4993800;28;20053;-67
2021/10/20 11:12:32;;;;;;;;;;;;;;;24.79;43.89;100052.78;4992912;28;20104;-67
2021/10/20 11:15:17;;;;;;;7.07;2.78;;;;;;;24.60;44.88;100040.38;4992636;28;19920;-67
2021/10/20 11:18:02;;;;;;;5.97;2.95;;;;;;;23.88;45.93;100038.13;4992819;28;20093;-67
2021/10/20 11:20:47;;;;;;;3.17;2.20;;;;;;;23.77;46.52;100046.22;4993652;28;20045;-67
2021/10/20 11:23:32;;;;;;;5.00;2.90;;;;;;;23.78;47.24;100042.44;4993940;28;20120;-67
2021/10/20 11:26:16;;;;;;;3.67;2.80;;;;;;;23.41;48.71;100033.59;4992441;28;20105;-67
2021/10/20 11:29:10;;;;;;;5.25;2.53;;;;;;;22.58;50.53;100045.34;4992440;28;20048;-68
2021/10/20 11:31:58;;;;;;;3.88;2.88;;;;;;;22.29;52.14;100037.91;4993340;28;20042;-68
2021/10/20 11:34:44;;;;;;;3.83;2.33;;;;;;;22.02;52.88;100036.50;4979005;28;20057;-67
2021/10/20 11:37:28;;;;;;;10.63;3.30;;;;;;;21.79;53.66;100044.44;4992421;28;20080;-68
2021/10/20 11:40:12;;;;;;;;;;;;;;;21.53;54.73;100036.50;4993181;28;20049;-68
2021/10/20 11:42:56;;;;;;;6.07;3.30;;;;;;;21.32;55.94;100023.28;4978420;28;19920;-68
2021/10/20 11:45:40;;;;;;;4.05;2.78;;;;;;;21.12;56.34;100023.63;4992592;28;20407;-67
2021/10/20 11:48:24;;;;;;;4.68;2.65;;;;;;;21.06;57.41;100024.50;4992585;28;20057;-68
2021/10/20 11:51:08;;;;;;;;;;;;;;;20.96;57.57;100029.53;4992825;28;20053;-68
2021/10/20 11:53:52;;;;;;;3.33;2.77;;;;;;;20.92;58.39;100018.31;4994669;28;19925;-67
2021/10/20 11:56:36;;;;;;;4.03;2.90;;;;;;;20.94;58.31;100020.81;4996129;28;20118;-67
2021/10/20 11:59:21;;;;;;;4.80;2.88;;;;;;;20.86;58.93;100018.34;4982187;28;20479;-67
2021/10/20 12:02:05;;;;;;;4.57;2.60;;;;;;;20.85;58.88;100012.13;4995944;28;20045;-68
2021/10/20 12:04:49;;;;;;;5.63;3.05;;;;;;;20.82;59.62;99985.38;4995772;28;20057;-67
2021/10/20 12:07:33;;;;;;;5.35;2.75;;;;;;;20.80;59.20;99971.25;4995714;28;20069;-67
2021/10/20 12:10:19;;;;;;;8.13;3.10;;;;;;;20.81;59.95;99958.53;4995891;28;20053;-68
2021/10/20 12:13:04;;;;;;;6.93;3.00;;;;;;;20.78;59.85;99961.66;4996085;28;20064;-68
2021/10/20 12:15:49;;;;;;;6.43;3.17;;;;;;;20.69;60.22;99962.94;4995893;28;20053;-67
2021/10/20 12:18:33;;;;;;;3.63;2.95;;;;;;;20.73;60.12;99953.38;4995770;28;20096;-68
2021/10/20 12:21:17;;;;;;;;;;;;;;;20.68;60.76;99939.63;4996169;28;20045;-68
2021/10/20 12:24:02;;;;;;;8.48;3.70;;;;;;;20.78;60.61;99951.66;4995651;28;19920;-67
2021/10/20 12:26:46;;;;;;;6.53;2.85;;;;;;;20.83;60.00;99940.19;4995590;28;20097;-67
2021/10/20 12:29:36;;;;;;;4.07;2.80;;;;;;;20.87;60.60;99933.28;4996236;28;20048;-68
2021/10/20 12:32:25;;;;;;;5.47;3.38;;;;;;;20.81;61.22;99937.69;4996156;28;20049;-67
2021/10/20 12:35:16;;;;;;;5.75;2.97;;;;;;;20.86;61.48;99940.63;4995376;28;20133;-67
2021/10/20 12:38:04;;;;;;;6.47;3.30;;;;;;;20.89;61.45;99933.91;4995272;28;20097;-68
2021/10/20 12:40:49;;;;;;;4.75;3.30;;;;;;;20.86;61.79;99926.22;4995377;28;20503;-66